createdAt,value
2023-04-02T00:00:24.805Z,960.54
2023-04-02T00:01:24.777Z,960.57
2023-04-02T00:02:24.652Z,960.59
2023-04-02T00:03:24.688Z,960.57
2023-04-02T00:04:24.627Z,960.55
2023-04-02T00:05:24.550Z,960.61
2023-04-02T00:06:25.569Z,960.65
2023-04-02T00:07:24.539Z,960.63
2023-04-02T00:08:24.562Z,960.69
2023-04-02T00:09:24.545Z,960.67
2023-04-02T00:10:24.473Z,960.70
2023-04-02T00:11:24.465Z,960.74
2023-04-02T00:12:24.427Z,960.72
2023-04-02T00:13:24.427Z,960.75
2023-04-02T00:14:24.449Z,960.75
2023-04-02T00:15:24.383Z,960.75
2023-04-02T00:16:24.391Z,960.82
2023-04-02T00:17:24.344Z,960.79
2023-04-02T00:18:24.382Z,960.77
2023-04-02T00:19:24.342Z,960.84
2023-04-02T00:20:24.302Z,960.80
2023-04-02T00:21:24.295Z,960.81
2023-04-02T00:22:24.287Z,960.89
2023-04-02T00:23:24.250Z,960.95
2023-04-02T00:24:24.266Z,960.92
2023-04-02T00:25:24.209Z,960.91
2023-04-02T00:26:24.211Z,960.98
2023-04-02T00:27:24.170Z,960.93
2023-04-02T00:28:24.178Z,960.98
2023-04-02T00:29:24.208Z,960.95
2023-04-02T00:30:24.134Z,961.05
2023-04-02T00:31:24.142Z,961.12
2023-04-02T00:32:24.102Z,961.06
2023-04-02T00:33:24.070Z,961.04
2023-04-02T00:34:24.100Z,961.09
2023-04-02T00:35:24.059Z,961.10
2023-04-02T00:36:24.028Z,961.15
2023-04-02T00:37:24.085Z,961.14
2023-04-02T00:38:23.992Z,961.10
2023-04-02T00:39:24.047Z,961.08
2023-04-02T00:40:24.004Z,961.14
2023-04-02T00:41:23.950Z,961.17
2023-04-02T00:42:23.918Z,961.20
2023-04-02T00:43:23.912Z,961.28
2023-04-02T00:44:24.919Z,961.14
2023-04-02T00:45:23.873Z,961.28
2023-04-02T00:46:23.875Z,961.22
2023-04-02T00:47:23.844Z,961.21
2023-04-02T00:48:23.829Z,961.26
2023-04-02T00:49:23.887Z,961.22
2023-04-02T00:50:23.805Z,961.24
2023-04-02T00:51:23.772Z,961.38
2023-04-02T00:52:23.771Z,961.23
2023-04-02T00:53:23.732Z,961.30
2023-04-02T00:54:23.753Z,961.42
2023-04-02T00:55:23.710Z,961.37
2023-04-02T00:56:23.699Z,961.37
2023-04-02T00:57:23.707Z,961.41
2023-04-02T00:58:23.665Z,961.38
2023-04-02T00:59:23.673Z,961.51
2023-04-02T01:00:23.620Z,961.48
2023-04-02T01:01:23.727Z,961.49
2023-04-02T01:02:23.640Z,961.49
2023-04-02T01:03:23.658Z,961.43
2023-04-02T01:04:23.608Z,961.54
2023-04-02T01:05:23.576Z,961.58
2023-04-02T01:06:23.518Z,961.56
2023-04-02T01:07:23.534Z,961.58
2023-04-02T01:08:23.481Z,961.58
2023-04-02T01:09:23.525Z,961.58
2023-04-02T01:10:23.537Z,961.61
2023-04-02T01:11:23.432Z,961.59
2023-04-02T01:12:23.413Z,961.68
2023-04-02T01:13:23.406Z,961.69
2023-04-02T01:14:23.421Z,961.69
2023-04-02T01:15:23.362Z,961.73
2023-04-02T01:16:23.376Z,961.75
2023-04-02T01:17:23.340Z,961.79
2023-04-02T01:18:23.297Z,961.78
2023-04-02T01:19:23.326Z,961.81
2023-04-02T01:20:23.263Z,961.78
2023-04-02T01:21:23.252Z,961.75
2023-04-02T01:22:23.241Z,961.78
2023-04-02T01:23:23.222Z,961.86
2023-04-02T01:24:23.239Z,961.88
2023-04-02T01:25:23.182Z,961.88
2023-04-02T01:26:23.203Z,961.88
2023-04-02T01:27:23.150Z,961.97
2023-04-02T01:28:23.141Z,961.93
2023-04-02T01:29:23.153Z,962.06
2023-04-02T01:30:24.099Z,962.02
2023-04-02T01:31:23.240Z,962.05
2023-04-02T01:32:23.081Z,962.11
2023-04-02T01:33:23.056Z,962.10
2023-04-02T01:34:24.433Z,962.14
2023-04-02T01:35:23.040Z,962.18
2023-04-02T01:36:22.988Z,962.17
2023-04-02T01:37:23.064Z,962.21
2023-04-02T01:38:22.970Z,962.20
2023-04-02T01:39:23.011Z,962.21
2023-04-02T01:40:22.971Z,962.18
2023-04-02T01:41:22.922Z,962.25
2023-04-02T01:42:22.894Z,962.28
2023-04-02T01:43:22.881Z,962.26
2023-04-02T01:44:22.857Z,962.40
2023-04-02T01:45:22.901Z,962.39
2023-04-02T01:46:22.911Z,962.41
2023-04-02T01:47:23.809Z,962.43
2023-04-02T01:48:22.789Z,962.42
2023-04-02T01:49:22.776Z,962.45
2023-04-02T01:50:22.829Z,962.47
2023-04-02T01:51:22.743Z,962.55
2023-04-02T01:52:22.754Z,962.44
2023-04-02T01:53:22.707Z,962.38
2023-04-02T01:54:22.698Z,962.51
2023-04-02T01:55:22.706Z,962.56
2023-04-02T01:56:22.689Z,962.53
2023-04-02T01:57:22.695Z,962.55
2023-04-02T01:58:22.653Z,962.61
2023-04-02T01:59:22.625Z,962.61
2023-04-02T02:00:22.638Z,962.60
2023-04-02T02:01:23.608Z,962.60
2023-04-02T02:02:22.582Z,962.63
2023-04-02T02:03:22.542Z,962.69
2023-04-02T02:04:22.542Z,962.73
2023-04-02T02:05:22.533Z,962.75
2023-04-02T02:06:22.493Z,962.73
2023-04-02T02:07:22.485Z,962.76
2023-04-02T02:08:22.461Z,962.77
2023-04-02T02:09:22.446Z,962.85
2023-04-02T02:10:22.469Z,962.82
2023-04-02T02:11:22.416Z,962.89
2023-04-02T02:12:22.379Z,962.82
2023-04-02T02:13:22.376Z,962.86
2023-04-02T02:14:22.344Z,962.88
2023-04-02T02:15:22.365Z,962.95
2023-04-02T02:16:22.356Z,962.89
2023-04-02T02:17:22.329Z,962.89
2023-04-02T02:18:22.285Z,962.92
2023-04-02T02:19:22.267Z,962.92
2023-04-02T02:20:22.280Z,962.95
2023-04-02T02:21:22.233Z,962.95
2023-04-02T02:22:22.228Z,962.97
2023-04-02T02:23:22.208Z,962.95
2023-04-02T02:24:22.181Z,963.01
2023-04-02T02:25:22.202Z,963.03
2023-04-02T02:26:22.158Z,963.04
2023-04-02T02:27:22.129Z,963.10
2023-04-02T02:28:22.128Z,963.08
2023-04-02T02:29:22.096Z,963.09
2023-04-02T02:30:22.113Z,963.21
2023-04-02T02:31:22.112Z,963.18
2023-04-02T02:32:22.077Z,963.22
2023-04-02T02:33:22.047Z,963.05
2023-04-02T02:34:22.018Z,963.25
2023-04-02T02:35:22.024Z,963.35
2023-04-02T02:36:22.033Z,963.22
2023-04-02T02:37:22.002Z,963.32
2023-04-02T02:38:21.954Z,963.30
2023-04-02T02:39:21.942Z,963.36
2023-04-02T02:40:21.967Z,963.41
2023-04-02T02:41:21.933Z,963.37
2023-04-02T02:42:21.877Z,963.41
2023-04-02T02:43:21.883Z,963.39
2023-04-02T02:44:21.852Z,963.51
2023-04-02T02:45:21.876Z,963.53
2023-04-02T02:46:21.832Z,963.49
2023-04-02T02:47:21.894Z,963.50
2023-04-02T02:48:21.770Z,963.55
2023-04-02T02:49:21.787Z,963.57
2023-04-02T02:50:21.797Z,963.55
2023-04-02T02:51:21.720Z,963.64
2023-04-02T02:52:21.713Z,963.59
2023-04-02T02:53:21.693Z,963.66
2023-04-02T02:54:21.689Z,963.66
2023-04-02T02:55:21.701Z,963.69
2023-04-02T02:56:22.646Z,963.69
2023-04-02T02:57:21.674Z,963.71
2023-04-02T02:58:21.629Z,963.71
2023-04-02T02:59:21.602Z,963.73
2023-04-02T03:00:21.697Z,963.74
2023-04-02T03:01:21.652Z,963.72
2023-04-02T03:02:21.628Z,963.66
2023-04-02T03:03:21.674Z,963.74
2023-04-02T03:04:21.533Z,963.77
2023-04-02T03:05:21.516Z,963.84
2023-04-02T03:06:21.472Z,963.84
2023-04-02T03:07:21.464Z,963.85
2023-04-02T03:08:21.424Z,963.91
2023-04-02T03:09:21.444Z,963.87
2023-04-02T03:10:21.436Z,963.91
2023-04-02T03:11:21.382Z,963.94
2023-04-02T03:12:21.363Z,963.96
2023-04-02T03:13:21.351Z,963.95
2023-04-02T03:14:21.336Z,963.97
2023-04-02T03:15:21.332Z,964.02
2023-04-02T03:16:21.403Z,964.04
2023-04-02T03:17:21.278Z,964.00
2023-04-02T03:18:21.257Z,964.07
2023-04-02T03:19:21.241Z,964.06
2023-04-02T03:20:21.252Z,964.11
2023-04-02T03:21:21.213Z,964.17
2023-04-02T03:22:21.199Z,964.11
2023-04-02T03:23:21.179Z,964.17
2023-04-02T03:24:21.161Z,964.15
2023-04-02T03:25:21.184Z,964.25
2023-04-02T03:26:21.136Z,964.28
2023-04-02T03:27:21.123Z,964.25
2023-04-02T03:28:21.100Z,964.27
2023-04-02T03:29:21.144Z,964.33
2023-04-02T03:30:21.091Z,964.39
2023-04-02T03:31:52.928Z,964.34
2023-04-02T03:32:21.027Z,964.36
2023-04-02T03:33:21.014Z,964.38
2023-04-02T03:34:20.991Z,964.40
2023-04-02T03:35:20.995Z,964.42
2023-04-02T03:36:21.055Z,964.48
2023-04-02T03:37:20.944Z,964.45
2023-04-02T03:38:20.925Z,964.45
2023-04-02T03:39:20.956Z,964.38
2023-04-02T03:40:20.938Z,964.42
2023-04-02T03:41:20.870Z,964.51
2023-04-02T03:42:20.862Z,964.56
2023-04-02T03:43:20.858Z,964.55
2023-04-02T03:44:21.038Z,964.60
2023-04-02T03:45:20.841Z,964.61
2023-04-02T03:46:20.814Z,964.63
2023-04-02T03:47:20.782Z,964.57
2023-04-02T03:48:20.760Z,964.78
2023-04-02T03:49:20.731Z,964.68
2023-04-02T03:50:20.751Z,964.77
2023-04-02T03:51:20.704Z,964.68
2023-04-02T03:52:20.686Z,964.69
2023-04-02T03:53:20.714Z,964.75
2023-04-02T03:54:20.662Z,964.69
2023-04-02T03:55:20.671Z,964.77
2023-04-02T03:56:20.616Z,964.82
2023-04-02T03:57:20.624Z,964.81
2023-04-02T03:58:20.588Z,964.78
2023-04-02T03:59:20.586Z,964.75
2023-04-02T04:00:20.589Z,964.83
2023-04-02T04:01:20.545Z,964.82
2023-04-02T04:02:20.621Z,964.79
2023-04-02T04:03:20.500Z,964.74
2023-04-02T04:04:20.515Z,964.87
2023-04-02T04:05:20.504Z,964.97
2023-04-02T04:06:21.337Z,964.96
2023-04-02T04:07:20.431Z,964.91
2023-04-02T04:08:20.431Z,965.01
2023-04-02T04:09:20.391Z,965.03
2023-04-02T04:10:20.415Z,964.99
2023-04-02T04:11:20.376Z,965.08
2023-04-02T04:12:20.352Z,965.08
2023-04-02T04:13:20.357Z,965.16
2023-04-02T04:14:20.323Z,965.19
2023-04-02T04:15:20.333Z,965.15
2023-04-02T04:16:20.342Z,965.18
2023-04-02T04:17:20.268Z,965.19
2023-04-02T04:18:20.243Z,965.21
2023-04-02T04:19:20.226Z,965.32
2023-04-02T04:20:20.312Z,965.31
2023-04-02T04:21:20.210Z,965.29
2023-04-02T04:22:20.191Z,965.34
2023-04-02T04:23:20.180Z,965.33
2023-04-02T04:24:20.166Z,965.34
2023-04-02T04:25:20.156Z,965.37
2023-04-02T04:26:20.109Z,965.40
2023-04-02T04:27:20.105Z,965.38
2023-04-02T04:28:20.077Z,965.44
2023-04-02T04:29:20.069Z,965.43
2023-04-02T04:30:20.132Z,965.40
2023-04-02T04:31:20.121Z,965.45
2023-04-02T04:32:20.097Z,965.49
2023-04-02T04:33:19.988Z,965.46
2023-04-02T04:34:20.041Z,965.51
2023-04-02T04:35:20.015Z,965.51
2023-04-02T04:36:19.966Z,965.55
2023-04-02T04:37:19.933Z,965.48
2023-04-02T04:38:19.924Z,965.59
2023-04-02T04:39:19.895Z,965.58
2023-04-02T04:40:19.914Z,965.59
2023-04-02T04:41:19.856Z,965.63
2023-04-02T04:42:19.848Z,965.70
2023-04-02T04:43:19.828Z,965.73
2023-04-02T04:44:19.810Z,965.79
2023-04-02T04:45:19.830Z,965.84
2023-04-02T04:46:19.799Z,965.85
2023-04-02T04:47:19.760Z,965.78
2023-04-02T04:48:19.752Z,965.86
2023-04-02T04:49:19.772Z,965.93
2023-04-02T04:50:19.760Z,965.79
2023-04-02T04:51:19.696Z,965.89
2023-04-02T04:52:19.686Z,966.00
2023-04-02T04:53:19.668Z,966.00
2023-04-02T04:54:19.635Z,966.06
2023-04-02T04:55:19.693Z,966.10
2023-04-02T04:56:19.977Z,966.10
2023-04-02T04:57:20.604Z,966.14
2023-04-02T04:58:19.581Z,966.23
2023-04-02T04:59:19.566Z,966.11
2023-04-02T05:00:19.542Z,966.20
2023-04-02T05:01:19.566Z,966.28
2023-04-02T05:02:19.516Z,966.26
2023-04-02T05:03:19.502Z,966.27
2023-04-02T05:04:19.526Z,966.25
2023-04-02T05:05:19.450Z,966.35
2023-04-02T05:06:20.481Z,966.30
2023-04-02T05:07:19.422Z,966.34
2023-04-02T05:08:19.409Z,966.43
2023-04-02T05:09:19.385Z,966.36
2023-04-02T05:10:19.371Z,966.41
2023-04-02T05:11:19.386Z,966.36
2023-04-02T05:12:19.343Z,966.45
2023-04-02T05:13:19.321Z,966.42
2023-04-02T05:14:19.314Z,966.40
2023-04-02T05:15:19.316Z,966.37
2023-04-02T05:16:19.371Z,966.39
2023-04-02T05:17:19.261Z,966.49
2023-04-02T05:18:19.236Z,966.49
2023-04-02T05:19:19.210Z,966.52
2023-04-02T05:20:19.191Z,966.55
2023-04-02T05:21:19.209Z,966.52
2023-04-02T05:22:19.158Z,966.53
2023-04-02T05:23:19.232Z,966.58
2023-04-02T05:24:19.137Z,966.64
2023-04-02T05:25:19.111Z,966.63
2023-04-02T05:26:19.130Z,966.65
2023-04-02T05:27:19.080Z,966.75
2023-04-02T05:28:19.074Z,966.71
2023-04-02T05:29:19.047Z,966.72
2023-04-02T05:30:20.147Z,966.76
2023-04-02T05:31:20.127Z,966.76
2023-04-02T05:32:18.987Z,966.79
2023-04-02T05:33:18.978Z,966.78
2023-04-02T05:34:18.950Z,966.86
2023-04-02T05:35:18.971Z,966.83
2023-04-02T05:36:19.009Z,966.87
2023-04-02T05:37:18.911Z,966.92
2023-04-02T05:38:18.885Z,966.87
2023-04-02T05:39:18.872Z,967.01
2023-04-02T05:40:18.847Z,967.08
2023-04-02T05:41:18.870Z,967.04
2023-04-02T05:42:18.834Z,967.08
2023-04-02T05:43:18.804Z,967.10
2023-04-02T05:44:18.804Z,967.08
2023-04-02T05:45:18.764Z,967.09
2023-04-02T05:46:18.902Z,967.14
2023-04-02T05:47:18.730Z,967.20
2023-04-02T05:48:18.794Z,967.18
2023-04-02T05:49:18.689Z,967.14
2023-04-02T05:50:18.681Z,967.25
2023-04-02T05:51:18.717Z,967.15
2023-04-02T05:52:18.649Z,967.24
2023-04-02T05:53:18.627Z,967.30
2023-04-02T05:54:18.608Z,967.32
2023-04-02T05:55:18.618Z,967.24
2023-04-02T05:56:18.804Z,967.39
2023-04-02T05:57:19.387Z,967.33
2023-04-02T05:59:19.531Z,967.43
2023-04-02T06:00:18.517Z,967.43
2023-04-02T06:01:18.510Z,967.46
2023-04-02T06:02:18.539Z,967.42
2023-04-02T06:03:18.529Z,967.44
2023-04-02T06:04:18.438Z,967.57
2023-04-02T06:05:18.423Z,967.53
2023-04-02T06:06:18.452Z,967.53
2023-04-02T06:07:18.421Z,967.51
2023-04-02T06:08:18.362Z,967.53
2023-04-02T06:09:18.356Z,967.57
2023-04-02T06:10:18.346Z,967.73
2023-04-02T06:11:18.343Z,967.57
2023-04-02T06:12:18.296Z,967.61
2023-04-02T06:13:18.277Z,967.64
2023-04-02T06:14:18.268Z,967.67
2023-04-02T06:15:18.245Z,967.77
2023-04-02T06:16:18.274Z,967.71
2023-04-02T06:17:18.213Z,967.70
2023-04-02T06:18:18.210Z,967.73
2023-04-02T06:19:18.176Z,967.75
2023-04-02T06:20:18.176Z,967.78
2023-04-02T06:21:19.193Z,967.70
2023-04-02T06:22:18.133Z,967.81
2023-04-02T06:23:18.120Z,967.96
2023-04-02T06:24:18.100Z,967.94
2023-04-02T06:25:18.075Z,967.96
2023-04-02T06:26:18.087Z,967.89
2023-04-02T06:27:18.043Z,968.00
2023-04-02T06:28:18.038Z,967.99
2023-04-02T06:29:18.017Z,968.02
2023-04-02T06:30:18.001Z,968.02
2023-04-02T06:31:18.030Z,968.11
2023-04-02T06:32:17.954Z,968.11
2023-04-02T06:33:17.936Z,968.14
2023-04-02T06:34:17.926Z,968.15
2023-04-02T06:35:17.916Z,968.16
2023-04-02T06:36:17.972Z,968.16
2023-04-02T06:37:17.890Z,968.25
2023-04-02T06:38:17.851Z,968.23
2023-04-02T06:39:17.841Z,968.24
2023-04-02T06:40:17.850Z,968.28
2023-04-02T06:41:17.836Z,968.23
2023-04-02T06:42:17.819Z,968.34
2023-04-02T06:43:17.775Z,968.29
2023-04-02T06:44:17.747Z,968.43
2023-04-02T06:45:17.738Z,968.37
2023-04-02T06:46:17.781Z,968.42
2023-04-02T06:47:17.705Z,968.39
2023-04-02T06:48:17.703Z,968.34
2023-04-02T06:49:17.678Z,968.41
2023-04-02T06:50:17.680Z,968.48
2023-04-02T06:51:17.678Z,968.51
2023-04-02T06:52:17.629Z,968.53
2023-04-02T06:53:17.608Z,968.54
2023-04-02T06:54:17.590Z,968.55
2023-04-02T06:55:18.665Z,968.62
2023-04-02T06:56:17.579Z,968.67
2023-04-02T06:57:17.638Z,968.67
2023-04-02T06:58:17.539Z,968.63
2023-04-02T06:59:17.518Z,968.75
2023-04-02T07:00:17.491Z,968.74
2023-04-02T07:01:17.518Z,968.80
2023-04-02T07:02:17.493Z,968.82
2023-04-02T07:03:17.449Z,968.87
2023-04-02T07:04:17.450Z,968.81
2023-04-02T07:05:17.413Z,968.87
2023-04-02T07:06:17.435Z,968.88
2023-04-02T07:07:17.367Z,968.94
2023-04-02T07:08:17.370Z,968.90
2023-04-02T07:09:17.343Z,968.91
2023-04-02T07:10:17.310Z,968.98
2023-04-02T07:11:19.406Z,969.08
2023-04-02T07:12:17.273Z,969.00
2023-04-02T07:13:17.271Z,969.06
2023-04-02T07:14:17.239Z,969.07
2023-04-02T07:15:17.237Z,969.10
2023-04-02T07:16:17.326Z,969.10
2023-04-02T07:17:17.191Z,969.11
2023-04-02T07:18:17.209Z,969.16
2023-04-02T07:19:17.183Z,969.06
2023-04-02T07:20:17.154Z,969.13
2023-04-02T07:21:17.153Z,969.17
2023-04-02T07:22:17.134Z,969.16
2023-04-02T07:23:17.138Z,969.24
2023-04-02T07:24:18.104Z,969.28
2023-04-02T07:25:17.074Z,969.24
2023-04-02T07:26:17.035Z,969.20
2023-04-02T07:27:17.066Z,969.36
2023-04-02T07:28:17.009Z,969.32
2023-04-02T07:29:16.981Z,969.24
2023-04-02T07:30:16.969Z,969.21
2023-04-02T07:31:17.030Z,969.28
2023-04-02T07:32:16.971Z,969.28
2023-04-02T07:33:16.934Z,969.34
2023-04-02T07:34:16.923Z,969.42
2023-04-02T07:35:16.889Z,969.39
2023-04-02T07:36:16.903Z,969.46
2023-04-02T07:37:17.881Z,969.40
2023-04-02T07:38:16.828Z,969.41
2023-04-02T07:39:16.831Z,969.46
2023-04-02T07:40:16.810Z,969.54
2023-04-02T07:41:16.783Z,969.49
2023-04-02T07:42:16.809Z,969.60
2023-04-02T07:43:16.788Z,969.57
2023-04-02T07:44:16.745Z,969.61
2023-04-02T07:45:16.714Z,969.58
2023-04-02T07:46:16.842Z,969.68
2023-04-02T07:47:16.713Z,969.60
2023-04-02T07:48:16.672Z,969.69
2023-04-02T07:49:16.653Z,969.67
2023-04-02T07:50:16.634Z,969.72
2023-04-02T07:51:16.612Z,969.78
2023-04-02T07:52:16.615Z,969.84
2023-04-02T07:53:16.567Z,969.78
2023-04-02T07:54:16.556Z,969.80
2023-04-02T07:55:16.535Z,969.77
2023-04-02T07:56:16.521Z,969.78
2023-04-02T07:57:16.572Z,969.83
2023-04-02T07:58:16.486Z,969.94
2023-04-02T07:59:16.471Z,969.89
2023-04-02T08:00:16.450Z,969.92
2023-04-02T08:01:16.466Z,969.88
2023-04-02T08:02:16.545Z,969.87
2023-04-02T08:03:16.484Z,969.99
2023-04-02T08:04:16.444Z,970.00
2023-04-02T08:05:16.374Z,970.01
2023-04-02T08:06:16.364Z,969.97
2023-04-02T08:07:16.360Z,970.09
2023-04-02T08:08:16.320Z,970.04
2023-04-02T08:09:16.301Z,970.05
2023-04-02T08:10:16.280Z,970.06
2023-04-02T08:11:16.271Z,970.10
2023-04-02T08:12:16.281Z,970.11
2023-04-02T08:13:16.232Z,970.15
2023-04-02T08:14:16.208Z,970.21
2023-04-02T08:15:16.259Z,970.23
2023-04-02T08:16:16.206Z,970.24
2023-04-02T08:17:16.207Z,970.27
2023-04-02T08:18:16.132Z,970.24
2023-04-02T08:19:16.118Z,970.29
2023-04-02T08:20:16.128Z,970.31
2023-04-02T08:21:16.762Z,970.29
2023-04-02T08:22:17.106Z,970.35
2023-04-02T08:23:16.077Z,970.31
2023-04-02T08:24:16.077Z,970.37
2023-04-02T08:25:16.024Z,970.37
2023-04-02T08:26:16.015Z,970.45
2023-04-02T08:27:16.076Z,970.40
2023-04-02T08:28:15.978Z,970.42
2023-04-02T08:29:15.965Z,970.50
2023-04-02T08:30:15.973Z,970.43
2023-04-02T08:31:15.970Z,970.49
2023-04-02T08:32:15.925Z,970.52
2023-04-02T08:33:15.904Z,970.49
2023-04-02T08:34:15.896Z,970.52
2023-04-02T08:35:15.852Z,970.63
2023-04-02T08:36:15.859Z,970.56
2023-04-02T08:37:15.838Z,970.56
2023-04-02T08:38:15.798Z,970.56
2023-04-02T08:39:15.772Z,970.55
2023-04-02T08:40:15.757Z,970.60
2023-04-02T08:41:15.745Z,970.61
2023-04-02T08:42:15.765Z,970.66
2023-04-02T08:43:15.727Z,970.63
2023-04-02T08:44:15.689Z,970.66
2023-04-02T08:45:25.035Z,970.64
2023-04-02T08:46:17.693Z,970.65
2023-04-02T08:47:15.674Z,970.65
2023-04-02T08:48:15.625Z,970.73
2023-04-02T08:49:15.634Z,970.68
2023-04-02T08:50:15.593Z,970.68
2023-04-02T08:51:15.573Z,970.71
2023-04-02T08:52:15.634Z,970.75
2023-04-02T08:53:15.539Z,970.78
2023-04-02T08:54:15.517Z,970.67
2023-04-02T08:55:15.505Z,970.76
2023-04-02T08:56:15.498Z,970.76
2023-04-02T08:57:15.566Z,970.86
2023-04-02T08:58:15.492Z,970.91
2023-04-02T08:59:15.469Z,970.90
2023-04-02T09:00:15.430Z,970.94
2023-04-02T09:01:15.412Z,970.97
2023-04-02T09:02:15.425Z,970.94
2023-04-02T09:03:15.372Z,971.00
2023-04-02T09:04:15.389Z,970.96
2023-04-02T09:05:15.345Z,971.12
2023-04-02T09:06:16.654Z,971.10
2023-04-02T09:07:16.346Z,971.13
2023-04-02T09:08:15.290Z,971.09
2023-04-02T09:09:15.274Z,971.13
2023-04-02T09:10:15.253Z,971.07
2023-04-02T09:11:15.244Z,971.10
2023-04-02T09:12:15.254Z,971.16
2023-04-02T09:13:15.213Z,971.17
2023-04-02T09:14:15.186Z,971.18
2023-04-02T09:15:15.209Z,971.24
2023-04-02T09:16:15.179Z,971.32
2023-04-02T09:17:15.206Z,971.33
2023-04-02T09:18:15.135Z,971.26
2023-04-02T09:19:15.097Z,971.27
2023-04-02T09:20:15.091Z,971.32
2023-04-02T09:21:15.063Z,971.35
2023-04-02T09:22:15.078Z,971.41
2023-04-02T09:23:15.026Z,971.33
2023-04-02T09:24:15.061Z,971.43
2023-04-02T09:25:14.994Z,971.48
2023-04-02T09:26:14.984Z,971.39
2023-04-02T09:27:15.001Z,971.46
2023-04-02T09:28:14.954Z,971.58
2023-04-02T09:29:14.931Z,971.54
2023-04-02T09:30:14.925Z,971.51
2023-04-02T09:31:14.925Z,971.50
2023-04-02T09:32:47.287Z,971.57
2023-04-02T09:33:14.905Z,971.55
2023-04-02T09:34:14.859Z,971.59
2023-04-02T09:35:24.536Z,971.62
2023-04-02T09:36:16.895Z,971.63
2023-04-02T09:37:15.831Z,971.61
2023-04-02T09:38:14.783Z,971.72
2023-04-02T09:39:14.784Z,971.69
2023-04-02T09:40:14.773Z,971.68
2023-04-02T09:41:14.756Z,971.73
2023-04-02T09:42:14.763Z,971.80
2023-04-02T09:43:14.721Z,971.71
2023-04-02T09:44:14.681Z,971.78
2023-04-02T09:45:14.674Z,971.78
2023-04-02T09:46:14.723Z,971.72
2023-04-02T09:47:14.665Z,971.80
2023-04-02T09:48:14.603Z,971.80
2023-04-02T09:49:15.625Z,971.84
2023-04-02T09:50:14.609Z,971.80
2023-04-02T09:51:14.601Z,971.85
2023-04-02T09:52:14.593Z,971.82
2023-04-02T09:53:14.538Z,971.84
2023-04-02T09:54:14.512Z,971.80
2023-04-02T09:55:14.512Z,971.88
2023-04-02T09:56:14.483Z,971.98
2023-04-02T09:57:14.553Z,971.91
2023-04-02T09:58:14.442Z,971.88
2023-04-02T09:59:14.446Z,972.01
2023-04-02T10:00:29.888Z,971.94
2023-04-02T10:01:16.467Z,971.99
2023-04-02T10:02:14.413Z,972.04
2023-04-02T10:03:14.355Z,972.07
2023-04-02T10:04:14.475Z,972.10
2023-04-02T10:05:17.047Z,972.08
2023-04-02T10:06:15.348Z,972.12
2023-04-02T10:07:14.324Z,972.15
2023-04-02T10:08:14.277Z,972.10
2023-04-02T10:09:14.254Z,972.17
2023-04-02T10:10:14.242Z,972.20
2023-04-02T10:11:14.239Z,972.26
2023-04-02T10:12:14.262Z,972.31
2023-04-02T10:13:14.206Z,972.23
2023-04-02T10:14:14.194Z,972.24
2023-04-02T10:15:14.165Z,972.29
2023-04-02T10:16:14.228Z,972.30
2023-04-02T10:17:14.352Z,972.30
2023-04-02T10:18:14.093Z,972.46
2023-04-02T10:19:14.090Z,972.44
2023-04-02T10:20:14.065Z,972.45
2023-04-02T10:21:14.054Z,972.42
2023-04-02T10:22:14.037Z,972.45
2023-04-02T10:23:14.038Z,972.46
2023-04-02T10:24:13.997Z,972.39
2023-04-02T10:25:13.976Z,972.49
2023-04-02T10:26:13.961Z,972.56
2023-04-02T10:27:13.952Z,972.51
2023-04-02T10:28:13.973Z,972.51
2023-04-02T10:29:13.969Z,972.52
2023-04-02T10:30:13.895Z,972.62
2023-04-02T10:31:13.940Z,972.60
2023-04-02T10:32:13.878Z,972.68
2023-04-02T10:33:13.886Z,972.61
2023-04-02T10:34:13.849Z,972.57
2023-04-02T10:35:13.829Z,972.71
2023-04-02T10:36:13.910Z,972.68
2023-04-02T10:37:13.777Z,972.68
2023-04-02T10:38:13.782Z,972.63
2023-04-02T10:39:13.741Z,972.68
2023-04-02T10:40:13.746Z,972.67
2023-04-02T10:41:13.719Z,972.76
2023-04-02T10:42:13.715Z,972.76
2023-04-02T10:43:13.714Z,972.77
2023-04-02T10:44:20.163Z,972.77
2023-04-02T10:45:15.684Z,972.79
2023-04-02T10:46:13.679Z,972.78
2023-04-02T10:47:13.626Z,972.79
2023-04-02T10:48:13.649Z,972.77
2023-04-02T10:49:13.606Z,972.80
2023-04-02T10:50:13.590Z,972.85
2023-04-02T10:51:13.548Z,972.78
2023-04-02T10:52:13.532Z,972.87
2023-04-02T10:53:13.562Z,972.79
2023-04-02T10:54:13.538Z,972.89
2023-04-02T10:55:13.483Z,972.89
2023-04-02T10:56:13.460Z,972.92
2023-04-02T10:57:13.440Z,972.89
2023-04-02T10:58:13.515Z,972.86
2023-04-02T10:59:13.399Z,972.96
2023-04-02T11:00:13.400Z,972.95
2023-04-02T11:01:13.467Z,972.88
2023-04-02T11:02:13.374Z,972.94
2023-04-02T11:03:13.506Z,972.91
2023-04-02T11:04:14.302Z,972.92
2023-04-02T11:05:14.310Z,972.94
2023-04-02T11:06:13.288Z,972.93
2023-04-02T11:07:14.997Z,973.01
2023-04-02T11:08:14.314Z,972.97
2023-04-02T11:09:13.235Z,973.04
2023-04-02T11:10:13.217Z,972.99
2023-04-02T11:11:13.206Z,973.11
2023-04-02T11:12:13.189Z,973.11
2023-04-02T11:13:13.202Z,973.11
2023-04-02T11:14:13.163Z,973.09
2023-04-02T11:15:13.164Z,973.14
2023-04-02T11:16:13.150Z,973.16
2023-04-02T11:17:13.112Z,973.15
2023-04-02T11:18:13.139Z,973.14
2023-04-02T11:19:13.129Z,973.21
2023-04-02T11:20:13.042Z,973.26
2023-04-02T11:21:13.029Z,973.25
2023-04-02T11:22:13.033Z,973.25
2023-04-02T11:23:13.056Z,973.24
2023-04-02T11:24:12.999Z,973.25
2023-04-02T11:25:12.987Z,973.25
2023-04-02T11:26:12.972Z,973.27
2023-04-02T11:27:12.928Z,973.31
2023-04-02T11:28:12.948Z,973.40
2023-04-02T11:29:12.938Z,973.41
2023-04-02T11:30:12.902Z,973.33
2023-04-02T11:31:12.873Z,973.33
2023-04-02T11:32:12.868Z,973.36
2023-04-02T11:33:13.595Z,973.34
2023-04-02T11:34:12.834Z,973.38
2023-04-02T11:35:12.816Z,973.30
2023-04-02T11:36:12.803Z,973.41
2023-04-02T11:37:12.769Z,973.33
2023-04-02T11:38:12.805Z,973.37
2023-04-02T11:39:17.576Z,973.34
2023-04-02T11:40:14.732Z,973.28
2023-04-02T11:41:12.693Z,973.39
2023-04-02T11:42:12.714Z,973.42
2023-04-02T11:43:12.831Z,973.40
2023-04-02T11:44:12.736Z,973.41
2023-04-02T11:45:12.652Z,973.44
2023-04-02T11:46:12.639Z,973.48
2023-04-02T11:47:12.603Z,973.39
2023-04-02T11:48:12.657Z,973.40
2023-04-02T11:49:12.566Z,973.44
2023-04-02T11:50:12.549Z,973.48
2023-04-02T11:51:12.540Z,973.54
2023-04-02T11:52:12.909Z,973.52
2023-04-02T11:53:12.550Z,973.53
2023-04-02T11:54:12.495Z,973.59
2023-04-02T11:55:12.470Z,973.56
2023-04-02T11:56:12.450Z,973.58
2023-04-02T11:57:12.468Z,973.63
2023-04-02T11:58:12.458Z,973.62
2023-04-02T11:59:12.388Z,973.59
2023-04-02T12:00:12.381Z,973.72
2023-04-02T12:01:12.361Z,973.66
2023-04-02T12:02:12.419Z,973.75
2023-04-02T12:03:12.397Z,973.79
2023-04-02T12:04:12.305Z,973.78
2023-04-02T12:05:12.303Z,973.81
2023-04-02T12:06:12.267Z,973.79
2023-04-02T12:07:12.269Z,973.85
2023-04-02T12:08:12.281Z,973.93
2023-04-02T12:09:12.215Z,973.86
2023-04-02T12:10:12.216Z,973.89
2023-04-02T12:11:12.184Z,973.96
2023-04-02T12:12:12.165Z,973.93
2023-04-02T12:13:12.179Z,973.98
2023-04-02T12:14:12.137Z,973.99
2023-04-02T12:15:12.157Z,973.98
2023-04-02T12:16:12.113Z,974.07
2023-04-02T12:17:12.341Z,974.13
2023-04-02T12:18:12.107Z,974.05
2023-04-02T12:19:12.091Z,974.09
2023-04-02T12:20:12.046Z,974.16
2023-04-02T12:21:12.030Z,974.07
2023-04-02T12:22:12.014Z,974.07
2023-04-02T12:23:12.053Z,974.16
2023-04-02T12:24:11.980Z,974.08
2023-04-02T12:25:11.958Z,974.16
2023-04-02T12:26:11.946Z,974.20
2023-04-02T12:27:11.939Z,974.26
2023-04-02T12:28:11.948Z,974.16
2023-04-02T12:29:11.893Z,974.16